East Blacksea — T2ZH3 — position and weather

sailwx.info

Track history (hours):
 
Tides and Currents Weather Stations Pressure Air Temp Water Temp Dewpoint Dewpoint Depression Visibility Wind Speed Wind Dir Waves Ship Positions

East Blacksea

Last reported at 2017-Mar-29 18:30 UTC. Time now 2017-Mar-29 18:58 UTC.
Position N 43°24' E 005°01'.

Length 69 m; draft 4.1 m.

Type: Cargo ship. MMSI: 572341210.

Date/timePositionNaut miles runAvg speedWind from/ knotsBaromVisibWave heightAir tempDewpointWater temp
2017-Mar-29 18:30N 43°24' E 005°01'0 0.0
2017-Mar-29 17:33N 43°24' E 005°01'0 0.0
2017-Mar-29 16:33N 43°24' E 005°01'0 0.0
2017-Mar-29 15:33N 43°24' E 005°01'0 0.0
2017-Mar-29 14:33N 43°24' E 005°01'0 0.0
2017-Mar-29 13:33N 43°24' E 005°01'0 0.0
2017-Mar-29 12:33N 43°24' E 005°01'0 0.0
2017-Mar-29 11:33N 43°24' E 005°01'0 0.0
2017-Mar-29 10:33N 43°24' E 005°01'0 0.0
2017-Mar-29 09:27N 43°24' E 005°01'0 0.0
2017-Mar-29 08:33N 43°24' E 005°01'0 0.0
2017-Mar-29 07:33N 43°24' E 005°01'0 0.0
2017-Mar-29 06:33N 43°24' E 005°01'0 0.0
2017-Mar-29 05:33N 43°24' E 005°01'0 0.0
2017-Mar-29 04:33N 43°24' E 005°01'0 0.0
2017-Mar-29 03:33N 43°24' E 005°01'0 0.0
2017-Mar-29 02:33N 43°24' E 005°01'0 0.0
2017-Mar-29 01:30N 43°24' E 005°01'0 0.0
2017-Mar-29 00:33N 43°24' E 005°01'0 0.0
2017-Mar-28 23:33N 43°24' E 005°01'0 0.0
2017-Mar-28 22:33N 43°24' E 005°01'0 0.0
2017-Mar-28 21:33N 43°24' E 005°01'0 0.0
2017-Mar-28 20:33N 43°24' E 005°01'0 0.0
2017-Mar-28 19:33N 43°24' E 005°01'0 0.0
2017-Mar-28 18:30N 43°24' E 005°01'0 0.0
2017-Mar-28 17:33N 43°24' E 005°01'0 0.0
2017-Mar-28 16:30N 43°24' E 005°01'0 0.0
2017-Mar-28 15:27N 43°24' E 005°01'0 0.0
2017-Mar-28 14:33N 43°24' E 005°01'0 0.0
2017-Mar-28 13:33N 43°24' E 005°01'0 0.0
2017-Mar-28 12:27N 43°24' E 005°01'0 0.0
2017-Mar-28 11:33N 43°24' E 005°01'0 0.0
2017-Mar-28 10:33N 43°24' E 005°01'0 0.0
2017-Mar-28 09:33N 43°24' E 005°01'0 0.0
2017-Mar-28 08:33N 43°24' E 005°01'0 0.0
2017-Mar-28 07:33N 43°24' E 005°01'0 0.0
2017-Mar-28 06:33N 43°24' E 005°01'0 0.0
2017-Mar-28 05:33N 43°24' E 005°01'0 0.0
2017-Mar-28 04:33N 43°24' E 005°01'0 0.0
2017-Mar-28 03:33N 43°24' E 005°01'0 0.0
2017-Mar-28 02:30N 43°24' E 005°01'0 0.0
2017-Mar-28 01:33N 43°24' E 005°01'0 0.0
2017-Mar-28 00:33N 43°24' E 005°01'0 0.0
2017-Mar-27 23:33N 43°24' E 005°01'0 0.0
2017-Mar-27 22:33N 43°24' E 005°01'0 0.0
2017-Mar-27 21:33N 43°24' E 005°01'0 0.0
2017-Mar-27 20:33N 43°24' E 005°01'0 0.0
2017-Mar-27 19:33N 43°24' E 005°01'0 0.0
2017-Mar-27 18:33N 43°24' E 005°01'1 1.2
2017-Mar-27 17:33N 43°24' E 004°59'1 1.1
2017-Mar-27 16:32N 43°24' E 004°58'0 0.0
2017-Mar-27 15:26N 43°24' E 004°58'2 2.6
2017-Mar-27 14:33N 43°22' E 004°58'171 6.8
2017-Mar-26 13:21N 41°15' E 002°24'13 6.8
2017-Mar-26 11:30N 41°07' E 002°11'7 6.9
2017-Mar-26 10:33N 41°02' E 002°04'7 7.0
2017-Mar-26 09:29N 40°57' E 001°57'7 7.2
2017-Mar-26 08:31N 40°53' E 001°50'7 7.2
2017-Mar-26 07:33N 40°48' E 001°43'7 7.3
2017-Mar-26 06:33N 40°44' E 001°35'7 7.2
2017-Mar-26 05:33N 40°39' E 001°28'8 6.7
2017-Mar-26 04:24N 40°35' E 001°20'7 6.6
2017-Mar-26 03:23N 40°31' E 001°12'5 6.5
2017-Mar-26 02:33N 40°29' E 001°06'7 6.5
2017-Mar-26 01:33N 40°26' E 000°58'7 6.7
2017-Mar-26 00:33N 40°23' E 000°50'7 6.9
2017-Mar-25 23:33N 40°20' E 000°43'7 6.6
2017-Mar-25 22:33N 40°16' E 000°35'7 6.7
2017-Mar-25 21:33N 40°13' E 000°28'7 6.7
2017-Mar-25 20:33N 40°09' E 000°20'7 6.6
2017-Mar-25 19:33N 40°05' E 000°14'7 6.7
2017-Mar-25 18:33N 40°00' E 000°07'  
2017-Mar-21 01:03N 39°19' E 001°35'4 7.0
2017-Mar-21 00:30N 39°18' E 001°40'6 6.7
2017-Mar-20 23:33N 39°17' E 001°48'7 6.7
2017-Mar-20 22:33N 39°15' E 001°57'7 7.1
2017-Mar-20 21:33N 39°14' E 002°06'7 7.3
2017-Mar-20 20:34N 39°13' E 002°15'7 7.2
2017-Mar-20 19:33N 39°11' E 002°24'7 6.8
2017-Mar-20 18:33N 39°09' E 002°33'7 6.9
2017-Mar-20 17:33N 39°07' E 002°41'7 7.3
2017-Mar-20 16:33N 39°06' E 002°50'7 7.4
2017-Mar-20 15:33N 39°05' E 002°60'7 7.0
2017-Mar-20 14:33N 39°03' E 003°09'7 7.2
2017-Mar-20 13:34N 39°02' E 003°18'7 7.2
2017-Mar-20 12:33N 39°01' E 003°27'8 7.3
2017-Mar-20 11:31N 38°59' E 003°36'7 7.0
2017-Mar-20 10:29N 38°57' E 003°45'  
Track history (hours):
 
Tides and Currents Weather Stations Pressure Air Temp Water Temp Dewpoint Dewpoint Depression Visibility Wind Speed Wind Dir Waves Ship Positions

East Blacksea

Last reported at 2017-Mar-29 18:30 UTC. Time now 2017-Mar-29 18:58 UTC.
Position N 43°24' E 005°01'.

Length 69 m; draft 4.1 m.

Type: Cargo ship. MMSI: 572341210.

Date/timePositionNaut miles runAvg speedWind from/ knotsBaromVisibWave heightAir tempDewpointWater temp
2017-Mar-29 18:30N 43°24' E 005°01'0 0.0
2017-Mar-29 17:33N 43°24' E 005°01'0 0.0
2017-Mar-29 16:33N 43°24' E 005°01'0 0.0
2017-Mar-29 15:33N 43°24' E 005°01'0 0.0
2017-Mar-29 14:33N 43°24' E 005°01'0 0.0
2017-Mar-29 13:33N 43°24' E 005°01'0 0.0
2017-Mar-29 12:33N 43°24' E 005°01'0 0.0
2017-Mar-29 11:33N 43°24' E 005°01'0 0.0
2017-Mar-29 10:33N 43°24' E 005°01'0 0.0
2017-Mar-29 09:27N 43°24' E 005°01'0 0.0
2017-Mar-29 08:33N 43°24' E 005°01'0 0.0
2017-Mar-29 07:33N 43°24' E 005°01'0 0.0
2017-Mar-29 06:33N 43°24' E 005°01'0 0.0
2017-Mar-29 05:33N 43°24' E 005°01'0 0.0
2017-Mar-29 04:33N 43°24' E 005°01'0 0.0
2017-Mar-29 03:33N 43°24' E 005°01'0 0.0
2017-Mar-29 02:33N 43°24' E 005°01'0 0.0
2017-Mar-29 01:30N 43°24' E 005°01'0 0.0
2017-Mar-29 00:33N 43°24' E 005°01'0 0.0
2017-Mar-28 23:33N 43°24' E 005°01'0 0.0
2017-Mar-28 22:33N 43°24' E 005°01'0 0.0
2017-Mar-28 21:33N 43°24' E 005°01'0 0.0
2017-Mar-28 20:33N 43°24' E 005°01'0 0.0
2017-Mar-28 19:33N 43°24' E 005°01'0 0.0
2017-Mar-28 18:30N 43°24' E 005°01'0 0.0
2017-Mar-28 17:33N 43°24' E 005°01'0 0.0
2017-Mar-28 16:30N 43°24' E 005°01'0 0.0
2017-Mar-28 15:27N 43°24' E 005°01'0 0.0
2017-Mar-28 14:33N 43°24' E 005°01'0 0.0
2017-Mar-28 13:33N 43°24' E 005°01'0 0.0
2017-Mar-28 12:27N 43°24' E 005°01'0 0.0
2017-Mar-28 11:33N 43°24' E 005°01'0 0.0
2017-Mar-28 10:33N 43°24' E 005°01'0 0.0
2017-Mar-28 09:33N 43°24' E 005°01'0 0.0
2017-Mar-28 08:33N 43°24' E 005°01'0 0.0
2017-Mar-28 07:33N 43°24' E 005°01'0 0.0
2017-Mar-28 06:33N 43°24' E 005°01'0 0.0
2017-Mar-28 05:33N 43°24' E 005°01'0 0.0
2017-Mar-28 04:33N 43°24' E 005°01'0 0.0
2017-Mar-28 03:33N 43°24' E 005°01'0 0.0
2017-Mar-28 02:30N 43°24' E 005°01'0 0.0
2017-Mar-28 01:33N 43°24' E 005°01'0 0.0
2017-Mar-28 00:33N 43°24' E 005°01'0 0.0
2017-Mar-27 23:33N 43°24' E 005°01'0 0.0
2017-Mar-27 22:33N 43°24' E 005°01'0 0.0
2017-Mar-27 21:33N 43°24' E 005°01'0 0.0
2017-Mar-27 20:33N 43°24' E 005°01'0 0.0
2017-Mar-27 19:33N 43°24' E 005°01'0 0.0
2017-Mar-27 18:33N 43°24' E 005°01'1 1.2
2017-Mar-27 17:33N 43°24' E 004°59'1 1.1
2017-Mar-27 16:32N 43°24' E 004°58'0 0.0
2017-Mar-27 15:26N 43°24' E 004°58'2 2.6
2017-Mar-27 14:33N 43°22' E 004°58'171 6.8
2017-Mar-26 13:21N 41°15' E 002°24'13 6.8
2017-Mar-26 11:30N 41°07' E 002°11'7 6.9
2017-Mar-26 10:33N 41°02' E 002°04'7 7.0
2017-Mar-26 09:29N 40°57' E 001°57'7 7.2
2017-Mar-26 08:31N 40°53' E 001°50'7 7.2
2017-Mar-26 07:33N 40°48' E 001°43'7 7.3
2017-Mar-26 06:33N 40°44' E 001°35'7 7.2
2017-Mar-26 05:33N 40°39' E 001°28'8 6.7
2017-Mar-26 04:24N 40°35' E 001°20'7 6.6
2017-Mar-26 03:23N 40°31' E 001°12'5 6.5
2017-Mar-26 02:33N 40°29' E 001°06'7 6.5
2017-Mar-26 01:33N 40°26' E 000°58'7 6.7
2017-Mar-26 00:33N 40°23' E 000°50'7 6.9
2017-Mar-25 23:33N 40°20' E 000°43'7 6.6
2017-Mar-25 22:33N 40°16' E 000°35'7 6.7
2017-Mar-25 21:33N 40°13' E 000°28'7 6.7
2017-Mar-25 20:33N 40°09' E 000°20'7 6.6
2017-Mar-25 19:33N 40°05' E 000°14'7 6.7
2017-Mar-25 18:33N 40°00' E 000°07'  
2017-Mar-21 01:03N 39°19' E 001°35'4 7.0
2017-Mar-21 00:30N 39°18' E 001°40'6 6.7
2017-Mar-20 23:33N 39°17' E 001°48'7 6.7
2017-Mar-20 22:33N 39°15' E 001°57'7 7.1
2017-Mar-20 21:33N 39°14' E 002°06'7 7.3
2017-Mar-20 20:34N 39°13' E 002°15'7 7.2
2017-Mar-20 19:33N 39°11' E 002°24'7 6.8
2017-Mar-20 18:33N 39°09' E 002°33'7 6.9
2017-Mar-20 17:33N 39°07' E 002°41'7 7.3
2017-Mar-20 16:33N 39°06' E 002°50'7 7.4
2017-Mar-20 15:33N 39°05' E 002°60'7 7.0
2017-Mar-20 14:33N 39°03' E 003°09'7 7.2
2017-Mar-20 13:34N 39°02' E 003°18'7 7.2
2017-Mar-20 12:33N 39°01' E 003°27'8 7.3
2017-Mar-20 11:31N 38°59' E 003°36'7 7.0
2017-Mar-20 10:29N 38°57' E 003°45'  

Dump ship's entire track history